createdAt,value
2023-07-30T00:00:14.168Z,3.60
2023-07-30T00:03:26.116Z,3.80
2023-07-30T00:06:18.880Z,3.40
2023-07-30T00:09:12.098Z,3.70
2023-07-30T00:11:58.113Z,3.50
2023-07-30T00:14:50.946Z,3.70
2023-07-30T00:17:40.706Z,3.70
2023-07-30T00:20:33.609Z,3.20
2023-07-30T00:23:16.328Z,3.20
2023-07-30T00:26:01.766Z,3.70
2023-07-30T00:28:56.354Z,3.70
2023-07-30T00:31:49.051Z,3.80
2023-07-30T00:34:42.985Z,4.50
2023-07-30T00:37:35.997Z,4.20
2023-07-30T00:40:11.272Z,4.00
2023-07-30T00:43:03.997Z,3.30
2023-07-30T00:45:50.884Z,4.40
2023-07-30T00:48:44.544Z,4.10
2023-07-30T00:51:29.047Z,3.70
2023-07-30T00:54:22.176Z,3.70
2023-07-30T00:57:15.658Z,3.80
2023-07-30T01:00:11.616Z,4.00
2023-07-30T01:03:05.474Z,4.30
2023-07-30T01:06:00.277Z,4.00
2023-07-30T01:08:54.662Z,3.60
2023-07-30T01:11:38.296Z,3.70
2023-07-30T01:14:27.321Z,3.80
2023-07-30T01:17:20.752Z,4.20
2023-07-30T01:20:05.890Z,5.30
2023-07-30T01:22:58.905Z,3.80
2023-07-30T01:25:42.030Z,3.90
2023-07-30T01:28:39.510Z,4.20
2023-07-30T01:31:35.752Z,4.10
2023-07-30T01:34:30.857Z,3.90
2023-07-30T01:37:25.189Z,3.70
2023-07-30T01:40:19.192Z,4.80
2023-07-30T01:43:04.689Z,5.00
2023-07-30T01:45:57.789Z,4.00
2023-07-30T01:48:54.368Z,5.30
2023-07-30T01:51:47.508Z,5.90
2023-07-30T01:54:41.449Z,5.10
2023-07-30T01:57:34.233Z,5.40
2023-07-30T02:00:18.375Z,5.50
2023-07-30T02:03:10.950Z,4.70
2023-07-30T02:06:04.472Z,4.10
2023-07-30T02:08:48.071Z,5.00
2023-07-30T02:11:33.748Z,4.50
2023-07-30T02:14:16.040Z,4.60
2023-07-30T02:17:09.406Z,4.70
2023-07-30T02:20:04.165Z,4.60
2023-07-30T02:22:57.005Z,4.70
2023-07-30T02:28:26.298Z,5.10
2023-07-30T02:31:19.182Z,5.30
2023-07-30T02:34:13.554Z,5.30
2023-07-30T02:37:00.651Z,5.20
2023-07-30T02:40:07.016Z,4.90
2023-07-30T02:42:59.959Z,5.40
2023-07-30T02:45:53.530Z,5.20
2023-07-30T02:48:38.717Z,5.60
2023-07-30T02:51:32.527Z,5.30
2023-07-30T02:54:25.642Z,5.20
2023-07-30T02:57:19.349Z,5.00
2023-07-30T03:00:14.674Z,5.10
2023-07-30T03:03:00.686Z,4.40
2023-07-30T03:05:53.611Z,5.00
2023-07-30T03:08:48.760Z,4.70
2023-07-30T03:11:34.035Z,5.30
2023-07-30T03:14:26.949Z,4.80
2023-07-30T03:17:13.309Z,4.30
2023-07-30T03:20:07.191Z,5.00
2023-07-30T03:22:52.608Z,5.10
2023-07-30T03:25:25.241Z,5.10
2023-07-30T03:28:11.718Z,4.40
2023-07-30T03:31:04.538Z,4.60
2023-07-30T03:33:57.453Z,4.70
2023-07-30T03:36:49.276Z,4.70
2023-07-30T03:39:41.013Z,5.60
2023-07-30T03:42:35.126Z,5.00
2023-07-30T03:45:27.872Z,4.70
2023-07-30T03:48:22.280Z,4.60
2023-07-30T03:51:15.223Z,4.50
2023-07-30T03:54:08.584Z,4.10
2023-07-30T03:57:01.749Z,4.60
2023-07-30T04:00:00.151Z,3.90
2023-07-30T04:02:53.028Z,4.20
2023-07-30T04:05:47.051Z,4.30
2023-07-30T04:08:39.951Z,4.00
2023-07-30T04:11:32.678Z,3.90
2023-07-30T04:14:22.235Z,3.90
2023-07-30T04:17:10.096Z,4.10
2023-07-30T04:20:03.570Z,3.50
2023-07-30T04:22:57.046Z,3.40
2023-07-30T04:25:40.866Z,3.50
2023-07-30T04:28:21.289Z,3.30
2023-07-30T04:30:57.466Z,3.40
2023-07-30T04:33:39.361Z,3.30
2023-07-30T04:36:32.853Z,2.70
2023-07-30T04:39:08.528Z,3.00
2023-07-30T04:41:54.009Z,2.60
2023-07-30T04:44:46.591Z,2.50
2023-07-30T04:47:39.896Z,2.50
2023-07-30T04:50:32.699Z,2.70
2023-07-30T04:53:11.439Z,2.60
2023-07-30T04:56:14.407Z,2.50
2023-07-30T04:59:07.348Z,2.70
2023-07-30T05:01:55.317Z,2.40
2023-07-30T05:04:39.548Z,2.30
2023-07-30T05:07:16.755Z,2.40
2023-07-30T05:10:12.393Z,2.30
2023-07-30T05:12:55.949Z,2.20
2023-07-30T05:15:48.919Z,2.20
2023-07-30T05:18:36.216Z,2.20
2023-07-30T05:21:28.891Z,2.10
2023-07-30T05:24:23.682Z,2.20
2023-07-30T05:27:16.855Z,2.10
2023-07-30T05:30:14.479Z,1.80
2023-07-30T05:33:07.144Z,1.70
2023-07-30T05:36:12.664Z,1.80
2023-07-30T05:39:03.781Z,1.80
2023-07-30T05:41:56.859Z,1.70
2023-07-30T05:44:49.979Z,1.90
2023-07-30T05:47:30.536Z,2.00
2023-07-30T05:50:23.461Z,2.20
2023-07-30T05:53:19.338Z,1.90
2023-07-30T05:56:19.731Z,2.10
2023-07-30T05:59:12.615Z,2.00
2023-07-30T06:02:07.814Z,2.00
2023-07-30T06:04:52.605Z,1.80
2023-07-30T06:07:45.499Z,2.10
2023-07-30T06:10:41.780Z,1.80
2023-07-30T06:13:25.958Z,1.60
2023-07-30T06:16:20.632Z,2.00
2023-07-30T06:19:13.895Z,1.80
2023-07-30T06:21:56.260Z,2.00
2023-07-30T06:24:48.220Z,2.00
2023-07-30T06:27:33.965Z,1.90
2023-07-30T06:30:27.048Z,3.00
2023-07-30T06:33:19.391Z,2.20
2023-07-30T06:36:06.301Z,1.70
2023-07-30T06:38:51.820Z,1.90
2023-07-30T06:41:44.931Z,1.90
2023-07-30T06:44:39.261Z,2.20
2023-07-30T06:47:34.285Z,2.40
2023-07-30T06:50:29.083Z,2.10
2023-07-30T06:53:23.265Z,1.80
2023-07-30T06:56:16.093Z,2.50
2023-07-30T06:59:08.928Z,2.00
2023-07-30T07:02:03.905Z,1.90
2023-07-30T07:04:58.235Z,1.90
2023-07-30T07:07:51.327Z,2.20
2023-07-30T07:10:46.283Z,2.20
2023-07-30T07:13:41.656Z,2.30
2023-07-30T07:16:28.956Z,2.20
2023-07-30T07:19:22.664Z,2.20
2023-07-30T07:22:16.402Z,2.50
2023-07-30T07:25:10.252Z,2.40
2023-07-30T07:27:55.884Z,2.10
2023-07-30T07:30:41.515Z,2.00
2023-07-30T07:33:33.964Z,2.10
2023-07-30T07:36:17.185Z,1.80
2023-07-30T07:39:10.030Z,1.80
2023-07-30T07:42:03.423Z,1.80
2023-07-30T07:44:56.070Z,2.00
2023-07-30T07:47:48.712Z,2.00
2023-07-30T07:50:34.253Z,1.70
2023-07-30T07:53:27.721Z,1.80
2023-07-30T07:56:10.285Z,1.70
2023-07-30T07:59:03.131Z,1.60
2023-07-30T08:01:56.133Z,1.60
2023-07-30T08:04:48.923Z,1.80
2023-07-30T08:07:41.812Z,1.40
2023-07-30T08:10:19.445Z,1.70
2023-07-30T08:13:13.350Z,1.40
2023-07-30T08:16:06.518Z,1.50
2023-07-30T08:18:59.196Z,1.50
2023-07-30T08:21:53.084Z,1.70
2023-07-30T08:24:45.727Z,1.50
2023-07-30T08:27:38.944Z,1.40
2023-07-30T08:30:31.936Z,1.40
2023-07-30T08:33:26.501Z,1.40
2023-07-30T08:36:18.178Z,1.20
2023-07-30T08:39:11.221Z,1.50
2023-07-30T08:42:04.767Z,1.50
2023-07-30T08:44:47.598Z,1.30
2023-07-30T08:47:41.879Z,1.20
2023-07-30T08:50:27.933Z,1.40
2023-07-30T08:53:21.120Z,1.50
2023-07-30T08:56:15.595Z,1.50
2023-07-30T08:59:01.132Z,1.00
2023-07-30T09:01:56.954Z,1.30
2023-07-30T09:04:53.447Z,1.20
2023-07-30T09:07:48.175Z,1.20
2023-07-30T09:10:41.170Z,1.20
2023-07-30T09:13:41.182Z,1.20
2023-07-30T09:16:28.842Z,1.10
2023-07-30T09:19:21.727Z,1.00
2023-07-30T09:22:14.484Z,1.30
2023-07-30T09:25:08.733Z,1.30
2023-07-30T09:28:01.535Z,1.40
2023-07-30T09:30:51.985Z,1.30
2023-07-30T09:33:45.731Z,1.30
2023-07-30T09:36:38.969Z,1.50
2023-07-30T09:39:31.877Z,1.10
2023-07-30T09:42:30.569Z,1.10
2023-07-30T09:45:26.270Z,1.30
2023-07-30T09:48:19.379Z,1.20
2023-07-30T09:51:07.111Z,1.40
2023-07-30T09:53:44.455Z,1.20
2023-07-30T09:56:35.985Z,1.70
2023-07-30T09:59:21.783Z,1.60
2023-07-30T10:02:16.439Z,1.30
2023-07-30T10:05:13.886Z,1.30
2023-07-30T10:08:00.469Z,1.50
2023-07-30T10:10:54.584Z,1.50
2023-07-30T10:13:47.954Z,2.00
2023-07-30T10:16:27.506Z,1.70
2023-07-30T10:19:24.207Z,1.50
2023-07-30T10:25:30.795Z,1.60
2023-07-30T10:28:33.942Z,1.50
2023-07-30T10:31:42.709Z,1.80
2023-07-30T10:34:48.593Z,1.80
2023-07-30T10:37:25.357Z,1.60
2023-07-30T10:40:21.583Z,1.60
2023-07-30T10:43:21.846Z,1.80
2023-07-30T10:46:16.571Z,1.80
2023-07-30T10:49:07.536Z,1.80
2023-07-30T10:52:01.693Z,1.90
2023-07-30T10:55:03.805Z,1.60
2023-07-30T10:57:57.367Z,1.80
2023-07-30T11:00:50.963Z,1.90
2023-07-30T11:03:29.775Z,1.80
2023-07-30T11:06:15.915Z,1.90
2023-07-30T11:09:20.657Z,1.50
2023-07-30T11:12:00.554Z,1.70
2023-07-30T11:14:35.866Z,1.60
2023-07-30T11:17:22.542Z,1.70
2023-07-30T11:19:59.961Z,1.70
2023-07-30T11:22:52.909Z,1.80
2023-07-30T11:25:50.783Z,1.70
2023-07-30T11:28:44.626Z,1.50
2023-07-30T11:31:37.916Z,2.00
2023-07-30T11:34:34.302Z,1.80
2023-07-30T11:37:16.306Z,2.00
2023-07-30T11:39:53.864Z,1.60
2023-07-30T11:42:43.806Z,1.40
2023-07-30T11:45:29.868Z,1.80
2023-07-30T11:48:14.241Z,1.60
2023-07-30T11:51:00.941Z,1.50
2023-07-30T11:53:57.414Z,1.70
2023-07-30T11:59:43.563Z,1.70
2023-07-30T12:02:23.423Z,1.90
2023-07-30T12:05:12.227Z,2.10
2023-07-30T12:07:59.427Z,2.00
2023-07-30T12:10:42.953Z,1.90
2023-07-30T12:13:39.225Z,2.10
2023-07-30T12:16:31.991Z,2.30
2023-07-30T12:19:25.944Z,1.80
2023-07-30T12:22:09.764Z,2.10
2023-07-30T12:24:52.419Z,1.60
2023-07-30T12:27:45.383Z,1.70
2023-07-30T12:30:38.081Z,1.50
2023-07-30T12:33:31.208Z,1.60
2023-07-30T12:36:24.373Z,1.90
2023-07-30T12:39:17.364Z,2.10
2023-07-30T12:42:00.313Z,1.60
2023-07-30T12:44:49.223Z,6.20
2023-07-30T12:47:42.402Z,1.90
2023-07-30T12:50:27.854Z,1.50
2023-07-30T12:53:20.562Z,1.60
2023-07-30T12:56:13.644Z,2.20
2023-07-30T12:59:06.237Z,1.90
2023-07-30T13:01:50.316Z,2.00
2023-07-30T13:04:42.940Z,1.70
2023-07-30T13:07:36.247Z,1.90
2023-07-30T13:10:29.477Z,1.60
2023-07-30T13:13:10.261Z,2.10
2023-07-30T13:15:48.425Z,2.10
2023-07-30T13:18:33.264Z,2.20
2023-07-30T13:21:26.426Z,2.00
2023-07-30T13:24:19.246Z,2.00
2023-07-30T13:27:11.966Z,1.90
2023-07-30T13:29:54.753Z,1.70
2023-07-30T13:32:46.800Z,1.80
2023-07-30T13:35:40.034Z,1.90
2023-07-30T13:38:33.120Z,1.70
2023-07-30T13:41:19.347Z,1.80
2023-07-30T13:44:12.292Z,1.80
2023-07-30T13:46:52.795Z,1.70
2023-07-30T13:49:48.826Z,2.00
2023-07-30T13:52:41.568Z,1.70
2023-07-30T13:55:34.028Z,1.60
2023-07-30T13:58:09.509Z,1.70
2023-07-30T14:00:55.819Z,1.60
2023-07-30T14:06:20.045Z,1.70
2023-07-30T14:09:04.586Z,1.70
2023-07-30T14:11:46.828Z,1.70
2023-07-30T14:14:29.002Z,1.90
2023-07-30T14:17:17.039Z,1.70
2023-07-30T14:20:11.231Z,2.10
2023-07-30T14:23:05.764Z,1.70
2023-07-30T14:25:53.270Z,2.30
2023-07-30T14:28:28.832Z,2.00
2023-07-30T14:31:01.983Z,2.10
2023-07-30T14:33:43.072Z,2.00
2023-07-30T14:36:29.313Z,2.00
2023-07-30T14:39:05.164Z,2.00
2023-07-30T14:41:41.801Z,1.90
2023-07-30T14:44:34.780Z,1.80
2023-07-30T14:47:28.504Z,1.80
2023-07-30T14:50:21.263Z,2.00
2023-07-30T14:53:14.406Z,1.80
2023-07-30T14:55:55.922Z,2.10
2023-07-30T14:58:48.818Z,2.00
2023-07-30T15:01:29.966Z,1.70
2023-07-30T15:04:12.367Z,1.90
2023-07-30T15:07:09.989Z,1.90
2023-07-30T15:09:57.372Z,1.90
2023-07-30T15:12:31.526Z,1.90
2023-07-30T15:15:05.696Z,2.10
2023-07-30T15:17:50.918Z,1.80
2023-07-30T15:20:44.130Z,1.90
2023-07-30T15:23:22.123Z,2.10
2023-07-30T15:26:16.917Z,1.60
2023-07-30T15:28:49.537Z,1.90
2023-07-30T15:31:35.816Z,1.90
2023-07-30T15:34:18.890Z,2.20
2023-07-30T15:36:57.958Z,2.00
2023-07-30T15:39:50.700Z,1.90
2023-07-30T15:42:26.193Z,2.10
2023-07-30T15:45:13.138Z,2.30
2023-07-30T15:48:06.113Z,2.10
2023-07-30T15:50:59.164Z,2.30
2023-07-30T15:53:44.721Z,2.00
2023-07-30T15:56:32.460Z,2.10
2023-07-30T15:59:10.133Z,2.30
2023-07-30T16:02:02.269Z,2.30
2023-07-30T16:04:55.344Z,2.30
2023-07-30T16:07:37.734Z,2.10
2023-07-30T16:10:23.231Z,2.40
2023-07-30T16:12:59.730Z,2.30
2023-07-30T16:15:46.448Z,2.40
2023-07-30T16:18:37.881Z,2.40
2023-07-30T16:21:31.051Z,2.90
2023-07-30T16:24:07.613Z,2.60
2023-07-30T16:26:47.686Z,2.50
2023-07-30T16:29:41.216Z,2.80
2023-07-30T16:32:17.109Z,2.50
2023-07-30T16:35:11.484Z,2.80
2023-07-30T16:38:04.986Z,3.30
2023-07-30T16:40:57.815Z,3.10
2023-07-30T16:43:50.574Z,3.00
2023-07-30T16:46:26.498Z,3.30
2023-07-30T16:49:12.872Z,3.00
2023-07-30T16:51:58.525Z,3.00
2023-07-30T16:54:44.992Z,2.90
2023-07-30T16:57:21.882Z,3.00
2023-07-30T16:59:57.414Z,3.20
2023-07-30T17:02:33.684Z,3.20
2023-07-30T17:05:12.082Z,4.00
2023-07-30T17:08:09.773Z,3.60
2023-07-30T17:10:56.053Z,3.60
2023-07-30T17:13:49.414Z,3.50
2023-07-30T17:16:24.814Z,3.30
2023-07-30T17:19:20.689Z,3.50
2023-07-30T17:22:13.549Z,3.60
2023-07-30T17:24:58.779Z,3.50
2023-07-30T17:27:41.335Z,3.40
2023-07-30T17:30:36.028Z,2.80
2023-07-30T17:33:09.841Z,3.30
2023-07-30T17:36:09.448Z,2.60
2023-07-30T17:39:02.390Z,2.90
2023-07-30T17:41:55.787Z,3.00
2023-07-30T17:44:45.805Z,2.80
2023-07-30T17:47:38.931Z,2.90
2023-07-30T17:50:36.978Z,2.80
2023-07-30T17:53:12.139Z,2.40
2023-07-30T17:56:01.502Z,2.90
2023-07-30T17:58:46.928Z,2.80
2023-07-30T18:01:31.435Z,2.90
2023-07-30T18:04:24.302Z,3.20
2023-07-30T18:07:11.414Z,3.20
2023-07-30T18:09:54.360Z,3.10
2023-07-30T18:12:41.126Z,3.10
2023-07-30T18:15:24.980Z,3.30
2023-07-30T18:18:21.217Z,2.90
2023-07-30T18:21:14.151Z,2.90
2023-07-30T18:24:08.875Z,2.80
2023-07-30T18:26:52.802Z,2.90
2023-07-30T18:29:28.545Z,2.60
2023-07-30T18:32:22.732Z,3.20
2023-07-30T18:35:06.210Z,2.40
2023-07-30T18:37:41.827Z,2.90
2023-07-30T18:40:36.511Z,2.90
2023-07-30T18:43:18.959Z,2.80
2023-07-30T18:46:11.961Z,2.60
2023-07-30T18:48:44.938Z,2.90
2023-07-30T18:51:37.703Z,3.20
2023-07-30T18:54:15.943Z,2.60
2023-07-30T18:56:48.799Z,2.60
2023-07-30T18:59:24.528Z,2.80
2023-07-30T19:02:11.768Z,2.90
2023-07-30T19:04:57.564Z,2.80
2023-07-30T19:07:30.329Z,2.90
2023-07-30T19:10:23.954Z,2.60
2023-07-30T19:13:16.900Z,2.70
2023-07-30T19:15:50.030Z,3.10
2023-07-30T19:18:43.333Z,3.40
2023-07-30T19:21:36.263Z,3.60
2023-07-30T19:24:22.386Z,4.10
2023-07-30T19:27:15.107Z,4.30
2023-07-30T19:30:00.714Z,4.00
2023-07-30T19:32:36.436Z,4.20
2023-07-30T19:35:12.239Z,4.40
2023-07-30T19:37:57.771Z,4.20
2023-07-30T19:40:55.379Z,3.80
2023-07-30T19:43:51.161Z,4.10
2023-07-30T19:46:43.781Z,4.20
2023-07-30T19:49:28.283Z,4.40
2023-07-30T19:52:01.676Z,4.40
2023-07-30T19:54:34.387Z,3.90
2023-07-30T19:57:20.829Z,3.80
2023-07-30T20:00:15.913Z,3.40
2023-07-30T20:03:10.479Z,3.40
2023-07-30T20:06:05.592Z,3.50
2023-07-30T20:08:58.481Z,3.40
2023-07-30T20:11:52.685Z,3.20
2023-07-30T20:14:46.113Z,3.10
2023-07-30T20:17:29.034Z,3.20
2023-07-30T20:20:13.038Z,2.80
2023-07-30T20:22:53.119Z,3.00
2023-07-30T20:25:29.078Z,2.90
2023-07-30T20:28:01.671Z,2.90
2023-07-30T20:30:46.950Z,3.00
2023-07-30T20:33:41.419Z,3.10
2023-07-30T20:36:25.222Z,3.30
2023-07-30T20:39:19.200Z,3.10
2023-07-30T20:42:12.494Z,3.00
2023-07-30T20:45:08.669Z,3.00
2023-07-30T20:48:01.708Z,3.00
2023-07-30T20:50:57.448Z,3.00
2023-07-30T20:53:50.502Z,3.00
2023-07-30T20:56:34.461Z,3.60
2023-07-30T20:59:11.434Z,3.10
2023-07-30T21:01:47.453Z,2.90
2023-07-30T21:04:34.054Z,3.10
2023-07-30T21:07:19.892Z,3.10
2023-07-30T21:10:06.629Z,3.00
2023-07-30T21:13:00.293Z,3.10
2023-07-30T21:15:52.519Z,3.40
2023-07-30T21:18:37.856Z,3.60
2023-07-30T21:21:20.673Z,3.30
2023-07-30T21:24:13.532Z,3.30
2023-07-30T21:27:07.229Z,3.20
2023-07-30T21:30:09.198Z,3.40
2023-07-30T21:33:02.202Z,3.80
2023-07-30T21:35:44.895Z,3.60
2023-07-30T21:38:37.276Z,3.70
2023-07-30T21:41:30.006Z,3.70
2023-07-30T21:44:22.993Z,3.50
2023-07-30T21:46:59.219Z,3.30
2023-07-30T21:49:45.604Z,3.30
2023-07-30T21:52:38.723Z,3.40
2023-07-30T21:55:31.895Z,3.80
2023-07-30T21:58:24.751Z,3.70
2023-07-30T22:01:17.760Z,4.20
2023-07-30T22:04:04.182Z,4.00
2023-07-30T22:06:57.381Z,3.30
2023-07-30T22:09:49.747Z,3.70
2023-07-30T22:12:35.888Z,3.80
2023-07-30T22:15:29.611Z,4.10
2023-07-30T22:18:12.319Z,4.00
2023-07-30T22:20:54.102Z,4.50
2023-07-30T22:23:47.981Z,4.10
2023-07-30T22:26:41.060Z,3.80
2023-07-30T22:32:02.141Z,3.70
2023-07-30T22:34:54.853Z,3.90
2023-07-30T22:37:47.928Z,3.90
2023-07-30T22:40:41.483Z,3.90
2023-07-30T22:43:13.915Z,3.80
2023-07-30T22:46:07.122Z,3.70
2023-07-30T22:49:00.430Z,3.70
2023-07-30T22:51:53.013Z,4.10
2023-07-30T22:54:45.987Z,4.20
2023-07-30T22:57:38.908Z,4.20
2023-07-30T23:00:32.094Z,4.10
2023-07-30T23:03:25.087Z,4.00
2023-07-30T23:06:17.621Z,4.40
2023-07-30T23:08:52.649Z,4.40
2023-07-30T23:11:47.502Z,4.30
2023-07-30T23:14:42.542Z,4.40
2023-07-30T23:17:15.359Z,4.20
2023-07-30T23:20:00.244Z,4.60
2023-07-30T23:22:53.347Z,4.70
2023-07-30T23:25:46.169Z,4.70
2023-07-30T23:28:30.201Z,4.70
2023-07-30T23:31:22.953Z,5.10
2023-07-30T23:34:16.628Z,4.50
2023-07-30T23:37:09.483Z,4.60
2023-07-30T23:39:54.261Z,4.60
2023-07-30T23:42:46.910Z,4.80
2023-07-30T23:45:32.779Z,4.50
2023-07-30T23:48:25.588Z,4.70
2023-07-30T23:51:18.433Z,4.50
2023-07-30T23:54:11.092Z,4.60
2023-07-30T23:57:03.923Z,4.70
2023-07-30T23:59:57.570Z,4.50
